createdAt,value
2018-09-23T00:00:50.894Z,1008.17
2018-09-23T00:01:50.877Z,1008.13
2018-09-23T00:02:50.862Z,1008.16
2018-09-23T00:03:50.849Z,1008.17
2018-09-23T00:04:50.829Z,1008.14
2018-09-23T00:05:50.815Z,1008.14
2018-09-23T00:06:50.800Z,1008.11
2018-09-23T00:07:50.794Z,1008.07
2018-09-23T00:08:50.773Z,1008.12
2018-09-23T00:09:50.753Z,1008.05
2018-09-23T00:10:50.739Z,1008.04
2018-09-23T00:11:50.723Z,1008
2018-09-23T00:12:50.711Z,1007.97
2018-09-23T00:13:50.691Z,1008.03
2018-09-23T00:14:50.676Z,1008.05
2018-09-23T00:15:50.661Z,1008.08
2018-09-23T00:16:50.646Z,1008.03
2018-09-23T00:17:50.629Z,1008.01
2018-09-23T00:18:50.613Z,1007.98
2018-09-23T00:19:50.598Z,1008.01
2018-09-23T00:20:50.588Z,1007.99
2018-09-23T00:21:50.568Z,1008.01
2018-09-23T00:22:50.552Z,1008.06
2018-09-23T00:23:50.536Z,1008.02
2018-09-23T00:24:50.520Z,1007.97
2018-09-23T00:25:50.510Z,1007.95
2018-09-23T00:26:50.490Z,1007.91
2018-09-23T00:27:50.471Z,1007.84
2018-09-23T00:28:50.458Z,1007.86
2018-09-23T00:29:50.442Z,1007.89
2018-09-23T00:30:50.431Z,1007.89
2018-09-23T00:31:50.415Z,1007.88
2018-09-23T00:32:50.398Z,1007.87
2018-09-23T00:33:50.380Z,1007.85
2018-09-23T00:34:50.369Z,1007.85
2018-09-23T00:35:50.348Z,1007.86
2018-09-23T00:36:50.333Z,1007.88
2018-09-23T00:37:50.317Z,1007.8
2018-09-23T00:38:50.301Z,1007.82
2018-09-23T00:39:50.285Z,1007.83
2018-09-23T00:40:50.271Z,1007.83
2018-09-23T00:41:50.257Z,1007.85
2018-09-23T00:42:50.242Z,1007.81
2018-09-23T00:43:50.224Z,1007.88
2018-09-23T00:44:50.208Z,1007.84
2018-09-23T00:45:50.194Z,1007.83
2018-09-23T00:46:50.179Z,1007.83
2018-09-23T00:47:50.162Z,1007.82
2018-09-23T00:48:50.149Z,1007.77
2018-09-23T00:49:50.130Z,1007.75
2018-09-23T00:50:50.118Z,1007.7
2018-09-23T00:51:50.303Z,1007.7
2018-09-23T00:52:50.086Z,1007.71
2018-09-23T00:53:50.070Z,1007.72
2018-09-23T00:54:50.052Z,1007.73
2018-09-23T00:55:50.042Z,1007.71
2018-09-23T00:56:50.024Z,1007.78
2018-09-23T00:57:50.011Z,1007.75
2018-09-23T00:58:49.992Z,1007.75
2018-09-23T00:59:49.976Z,1007.71
2018-09-23T01:00:49.963Z,1007.76
2018-09-23T01:01:49.944Z,1007.73
2018-09-23T01:02:49.940Z,1007.72
2018-09-23T01:03:49.914Z,1007.67
2018-09-23T01:04:49.900Z,1007.62
2018-09-23T01:05:49.883Z,1007.58
2018-09-23T01:06:49.868Z,1007.55
2018-09-23T01:07:49.852Z,1007.54
2018-09-23T01:08:49.836Z,1007.53
2018-09-23T01:09:49.824Z,1007.5
2018-09-23T01:10:49.806Z,1007.46
2018-09-23T01:11:49.791Z,1007.42
2018-09-23T01:12:49.775Z,1007.38
2018-09-23T01:13:49.759Z,1007.4
2018-09-23T01:14:49.746Z,1007.31
2018-09-23T01:15:49.730Z,1007.36
2018-09-23T01:16:49.719Z,1007.38
2018-09-23T01:17:49.700Z,1007.39
2018-09-23T01:18:49.685Z,1007.36
2018-09-23T01:19:49.669Z,1007.35
2018-09-23T01:20:49.653Z,1007.34
2018-09-23T01:21:49.637Z,1007.31
2018-09-23T01:22:49.621Z,1007.3
2018-09-23T01:23:49.611Z,1007.32
2018-09-23T01:24:49.591Z,1007.33
2018-09-23T01:25:49.581Z,1007.33
2018-09-23T01:26:49.561Z,1007.33
2018-09-23T01:27:49.546Z,1007.33
2018-09-23T01:28:49.532Z,1007.34
2018-09-23T01:29:49.518Z,1007.32
2018-09-23T01:30:49.500Z,1007.27
2018-09-23T01:31:49.490Z,1007.29
2018-09-23T01:32:49.469Z,1007.26
2018-09-23T01:33:49.454Z,1007.26
2018-09-23T01:34:49.440Z,1007.29
2018-09-23T01:35:49.425Z,1007.23
2018-09-23T01:36:49.411Z,1007.27
2018-09-23T01:37:49.395Z,1007.24
2018-09-23T01:38:49.378Z,1007.27
2018-09-23T01:39:49.362Z,1007.25
2018-09-23T01:40:49.348Z,1007.19
2018-09-23T01:41:49.334Z,1007.15
2018-09-23T01:42:49.318Z,1007.14
2018-09-23T01:43:49.303Z,1007.13
2018-09-23T01:44:49.291Z,1007.14
2018-09-23T01:45:49.272Z,1007.08
2018-09-23T01:46:49.260Z,1007.07
2018-09-23T01:47:49.242Z,1007.04
2018-09-23T01:48:49.230Z,1007.03
2018-09-23T01:49:49.210Z,1007.03
2018-09-23T01:50:49.196Z,1006.97
2018-09-23T01:51:49.180Z,1006.94
2018-09-23T01:52:49.165Z,1006.92
2018-09-23T01:53:49.150Z,1006.85
2018-09-23T01:54:49.138Z,1006.82
2018-09-23T01:55:49.121Z,1006.76
2018-09-23T01:56:49.107Z,1006.75
2018-09-23T01:57:49.090Z,1006.75
2018-09-23T01:58:49.076Z,1006.69
2018-09-23T01:59:49.059Z,1006.68
2018-09-23T02:00:49.045Z,1006.66
2018-09-23T02:01:49.029Z,1006.68
2018-09-23T02:02:49.013Z,1006.64
2018-09-23T02:03:48.999Z,1006.63
2018-09-23T02:04:48.983Z,1006.62
2018-09-23T02:05:48.973Z,1006.56
2018-09-23T02:06:48.952Z,1006.53
2018-09-23T02:07:48.938Z,1006.51
2018-09-23T02:08:48.925Z,1006.49
2018-09-23T02:09:48.908Z,1006.52
2018-09-23T02:10:48.893Z,1006.5
2018-09-23T02:11:48.878Z,1006.49
2018-09-23T02:12:48.863Z,1006.46
2018-09-23T02:13:48.846Z,1006.42
2018-09-23T02:14:48.834Z,1006.46
2018-09-23T02:15:48.818Z,1006.44
2018-09-23T02:16:48.801Z,1006.44
2018-09-23T02:17:48.784Z,1006.45
2018-09-23T02:18:48.770Z,1006.44
2018-09-23T02:19:48.754Z,1006.48
2018-09-23T02:20:48.740Z,1006.46
2018-09-23T02:21:48.727Z,1006.5
2018-09-23T02:22:48.709Z,1006.47
2018-09-23T02:23:48.695Z,1006.46
2018-09-23T02:24:48.678Z,1006.44
2018-09-23T02:25:48.679Z,1006.43
2018-09-23T02:26:48.652Z,1006.4
2018-09-23T02:27:48.634Z,1006.44
2018-09-23T02:28:48.620Z,1006.43
2018-09-23T02:29:48.604Z,1006.43
2018-09-23T02:30:48.590Z,1006.38
2018-09-23T02:31:48.575Z,1006.37
2018-09-23T02:32:48.566Z,1006.35
2018-09-23T02:33:48.544Z,1006.29
2018-09-23T02:34:48.528Z,1006.26
2018-09-23T02:35:48.511Z,1006.28
2018-09-23T02:36:48.502Z,1006.23
2018-09-23T02:37:48.482Z,1006.2
2018-09-23T02:38:48.478Z,1006.23
2018-09-23T02:39:48.450Z,1006.22
2018-09-23T02:40:48.435Z,1006.27
2018-09-23T02:41:48.423Z,1006.24
2018-09-23T02:42:48.408Z,1006.24
2018-09-23T02:43:48.393Z,1006.21
2018-09-23T02:44:48.374Z,1006.21
2018-09-23T02:45:48.360Z,1006.16
2018-09-23T02:46:48.342Z,1006.16
2018-09-23T02:47:48.330Z,1006.13
2018-09-23T02:48:48.313Z,1006.09
2018-09-23T02:49:48.302Z,1006.1
2018-09-23T02:50:48.282Z,1006.01
2018-09-23T02:51:48.469Z,1006
2018-09-23T02:52:48.254Z,1005.99
2018-09-23T02:53:48.237Z,1006.04
2018-09-23T02:54:48.221Z,1006.03
2018-09-23T02:55:48.207Z,1006.01
2018-09-23T02:56:48.189Z,1006
2018-09-23T02:57:48.176Z,1005.96
2018-09-23T02:58:48.166Z,1005.97
2018-09-23T02:59:48.144Z,1005.91
2018-09-23T03:00:48.134Z,1005.91
2018-09-23T03:01:48.113Z,1005.96
2018-09-23T03:02:48.099Z,1005.93
2018-09-23T03:03:48.086Z,1005.9
2018-09-23T03:04:48.069Z,1005.86
2018-09-23T03:05:48.056Z,1005.82
2018-09-23T03:06:48.037Z,1005.83
2018-09-23T03:07:48.024Z,1005.8
2018-09-23T03:08:48.007Z,1005.78
2018-09-23T03:09:47.992Z,1005.81
2018-09-23T03:10:47.976Z,1005.74
2018-09-23T03:11:47.961Z,1005.77
2018-09-23T03:12:47.947Z,1005.78
2018-09-23T03:13:47.930Z,1005.81
2018-09-23T03:14:47.919Z,1005.85
2018-09-23T03:15:47.901Z,1005.81
2018-09-23T03:16:47.885Z,1005.77
2018-09-23T03:17:47.871Z,1005.76
2018-09-23T03:18:47.857Z,1005.7
2018-09-23T03:19:47.839Z,1005.67
2018-09-23T03:20:47.830Z,1005.59
2018-09-23T03:21:47.810Z,1005.59
2018-09-23T03:22:47.795Z,1005.62
2018-09-23T03:23:47.780Z,1005.61
2018-09-23T03:24:47.767Z,1005.6
2018-09-23T03:25:47.753Z,1005.62
2018-09-23T03:26:47.735Z,1005.62
2018-09-23T03:27:47.719Z,1005.58
2018-09-23T03:28:47.703Z,1005.6
2018-09-23T03:29:47.689Z,1005.53
2018-09-23T03:30:47.680Z,1005.53
2018-09-23T03:31:47.666Z,1005.5
2018-09-23T03:32:47.651Z,1005.5
2018-09-23T03:33:47.628Z,1005.49
2018-09-23T03:34:47.619Z,1005.49
2018-09-23T03:35:47.600Z,1005.45
2018-09-23T03:36:47.585Z,1005.45
2018-09-23T03:37:47.565Z,1005.43
2018-09-23T03:38:47.552Z,1005.46
2018-09-23T03:39:47.536Z,1005.41
2018-09-23T03:40:47.524Z,1005.42
2018-09-23T03:41:47.509Z,1005.37
2018-09-23T03:42:47.494Z,1005.37
2018-09-23T03:43:47.474Z,1005.38
2018-09-23T03:44:47.470Z,1005.37
2018-09-23T03:45:47.444Z,1005.27
2018-09-23T03:46:47.430Z,1005.27
2018-09-23T03:47:47.414Z,1005.21
2018-09-23T03:48:47.400Z,1005.21
2018-09-23T03:49:47.386Z,1005.27
2018-09-23T03:50:47.390Z,1005.23
2018-09-23T03:51:47.360Z,1005.24
2018-09-23T03:52:47.339Z,1005.24
2018-09-23T03:53:47.329Z,1005.23
2018-09-23T03:54:47.313Z,1005.17
2018-09-23T03:55:47.293Z,1005.17
2018-09-23T03:56:47.277Z,1005.15
2018-09-23T03:57:47.288Z,1005.12
2018-09-23T03:58:47.250Z,1005.1
2018-09-23T03:59:47.232Z,1005.02
2018-09-23T04:00:47.216Z,1004.98
2018-09-23T04:01:47.202Z,1004.94
2018-09-23T04:02:47.187Z,1004.9
2018-09-23T04:03:47.171Z,1004.85
2018-09-23T04:04:47.156Z,1004.8
2018-09-23T04:05:47.142Z,1004.8
2018-09-23T04:06:47.128Z,1004.73
2018-09-23T04:07:47.111Z,1004.7
2018-09-23T04:08:47.099Z,1004.65
2018-09-23T04:09:47.080Z,1004.63
2018-09-23T04:10:47.068Z,1004.61
2018-09-23T04:11:47.049Z,1004.61
2018-09-23T04:12:47.034Z,1004.52
2018-09-23T04:13:47.022Z,1004.53
2018-09-23T04:14:47.010Z,1004.49
2018-09-23T04:15:46.996Z,1004.51
2018-09-23T04:16:46.976Z,1004.45
2018-09-23T04:17:46.985Z,1004.45
2018-09-23T04:18:46.943Z,1004.46
2018-09-23T04:19:46.929Z,1004.49
2018-09-23T04:20:46.913Z,1004.5
2018-09-23T04:21:46.899Z,1004.52
2018-09-23T04:22:46.885Z,1004.52
2018-09-23T04:23:46.867Z,1004.53
2018-09-23T04:24:46.852Z,1004.53
2018-09-23T04:25:46.836Z,1004.44
2018-09-23T04:26:46.824Z,1004.33
2018-09-23T04:27:46.807Z,1004.29
2018-09-23T04:28:46.789Z,1004.27
2018-09-23T04:29:46.775Z,1004.29
2018-09-23T04:30:46.760Z,1004.27
2018-09-23T04:31:46.745Z,1004.25
2018-09-23T04:32:46.730Z,1004.2
2018-09-23T04:33:46.719Z,1004.18
2018-09-23T04:34:46.732Z,1004.16
2018-09-23T04:35:46.683Z,1004.15
2018-09-23T04:36:46.672Z,1004.12
2018-09-23T04:37:46.654Z,1004.16
2018-09-23T04:38:46.643Z,1004.18
2018-09-23T04:39:46.623Z,1004.2
2018-09-23T04:40:46.606Z,1004.22
2018-09-23T04:41:46.590Z,1004.28
2018-09-23T04:42:46.576Z,1004.28
2018-09-23T04:43:46.560Z,1004.38
2018-09-23T04:44:46.592Z,1004.39
2018-09-23T04:45:46.534Z,1004.36
2018-09-23T04:46:46.520Z,1004.37
2018-09-23T04:47:46.500Z,1004.34
2018-09-23T04:48:46.484Z,1004.29
2018-09-23T04:49:46.470Z,1004.32
2018-09-23T04:50:46.454Z,1004.33
2018-09-23T04:51:46.640Z,1004.33
2018-09-23T04:52:46.423Z,1004.31
2018-09-23T04:53:46.416Z,1004.32
2018-09-23T04:54:46.393Z,1004.32
2018-09-23T04:55:46.378Z,1004.37
2018-09-23T04:56:46.367Z,1004.36
2018-09-23T04:57:46.349Z,1004.36
2018-09-23T04:58:46.332Z,1004.32
2018-09-23T04:59:46.318Z,1004.36
2018-09-23T05:00:46.303Z,1004.35
2018-09-23T05:01:46.287Z,1004.3
2018-09-23T05:02:46.271Z,1004.32
2018-09-23T05:03:46.256Z,1004.27
2018-09-23T05:04:46.245Z,1004.29
2018-09-23T05:05:46.225Z,1004.26
2018-09-23T05:06:46.216Z,1004.24
2018-09-23T05:07:46.194Z,1004.28
2018-09-23T05:08:46.182Z,1004.39
2018-09-23T05:09:46.166Z,1004.38
2018-09-23T05:10:46.148Z,1004.42
2018-09-23T05:11:46.135Z,1004.37
2018-09-23T05:12:46.120Z,1004.33
2018-09-23T05:13:46.103Z,1004.32
2018-09-23T05:14:46.088Z,1004.35
2018-09-23T05:15:46.075Z,1004.35
2018-09-23T05:16:46.056Z,1004.31
2018-09-23T05:17:46.041Z,1004.32
2018-09-23T05:18:46.025Z,1004.25
2018-09-23T05:19:46.012Z,1004.23
2018-09-23T05:20:45.995Z,1004.2
2018-09-23T05:21:45.981Z,1004.19
2018-09-23T05:22:45.970Z,1004.19
2018-09-23T05:23:45.948Z,1004.15
2018-09-23T05:24:45.934Z,1004.14
2018-09-23T05:25:45.919Z,1004.16
2018-09-23T05:26:45.905Z,1004.15
2018-09-23T05:27:45.888Z,1004.18
2018-09-23T05:28:45.873Z,1004.16
2018-09-23T05:29:45.859Z,1004.17
2018-09-23T05:30:45.843Z,1004.15
2018-09-23T05:31:45.827Z,1004.18
2018-09-23T05:32:45.813Z,1004.19
2018-09-23T05:33:45.796Z,1004.2
2018-09-23T05:34:45.781Z,1004.22
2018-09-23T05:35:45.765Z,1004.26
2018-09-23T05:36:45.752Z,1004.27
2018-09-23T05:37:45.740Z,1004.32
2018-09-23T05:38:45.722Z,1004.27
2018-09-23T05:39:45.705Z,1004.27
2018-09-23T05:40:45.690Z,1004.22
2018-09-23T05:41:45.676Z,1004.26
2018-09-23T05:42:45.660Z,1004.16
2018-09-23T05:43:45.645Z,1004.13
2018-09-23T05:44:45.630Z,1004.06
2018-09-23T05:45:45.613Z,1004.03
2018-09-23T05:46:45.598Z,1004.03
2018-09-23T05:47:45.584Z,1004
2018-09-23T05:48:45.573Z,1003.97
2018-09-23T05:49:45.552Z,1003.99
2018-09-23T05:50:45.538Z,1003.98
2018-09-23T05:51:45.525Z,1004
2018-09-23T05:52:45.508Z,1004.04
2018-09-23T05:53:45.495Z,1004.03
2018-09-23T05:54:45.478Z,1004.03
2018-09-23T05:55:45.462Z,1004.05
2018-09-23T05:56:45.447Z,1004.02
2018-09-23T05:57:45.431Z,1004.01
2018-09-23T05:58:45.418Z,1003.95
2018-09-23T05:59:45.400Z,1003.94
2018-09-23T06:00:45.388Z,1003.97
2018-09-23T06:01:45.376Z,1003.97
2018-09-23T06:02:45.356Z,1003.98
2018-09-23T06:03:45.340Z,1003.99
2018-09-23T06:04:45.324Z,1003.94
2018-09-23T06:05:45.314Z,1003.92
2018-09-23T06:06:45.297Z,1003.84
2018-09-23T06:07:45.307Z,1003.81
2018-09-23T06:08:45.296Z,1003.74
2018-09-23T06:09:45.248Z,1003.77
2018-09-23T06:10:45.235Z,1003.75
2018-09-23T06:11:45.221Z,1003.78
2018-09-23T06:12:45.216Z,1003.85
2018-09-23T06:13:45.188Z,1003.86
2018-09-23T06:14:45.174Z,1003.89
2018-09-23T06:15:45.158Z,1003.91
2018-09-23T06:16:45.144Z,1003.95
2018-09-23T06:17:45.128Z,1003.95
2018-09-23T06:18:45.111Z,1003.91
2018-09-23T06:19:45.097Z,1003.9
2018-09-23T06:20:45.089Z,1003.84
2018-09-23T06:21:45.070Z,1003.86
2018-09-23T06:22:45.059Z,1003.83
2018-09-23T06:23:45.040Z,1003.89
2018-09-23T06:24:45.034Z,1003.84
2018-09-23T06:25:45.009Z,1003.81
2018-09-23T06:26:44.998Z,1003.79
2018-09-23T06:27:44.976Z,1003.75
2018-09-23T06:28:44.963Z,1003.69
2018-09-23T06:29:44.949Z,1003.67
2018-09-23T06:30:44.934Z,1003.67
2018-09-23T06:31:44.933Z,1003.65
2018-09-23T06:32:44.903Z,1003.65
2018-09-23T06:33:44.887Z,1003.7
2018-09-23T06:34:44.873Z,1003.71
2018-09-23T06:35:44.862Z,1003.74
2018-09-23T06:36:44.841Z,1003.72
2018-09-23T06:37:45.031Z,1003.7
2018-09-23T06:38:44.813Z,1003.68
2018-09-23T06:39:44.798Z,1003.67
2018-09-23T06:40:44.782Z,1003.62
2018-09-23T06:41:44.792Z,1003.58
2018-09-23T06:42:44.751Z,1003.55
2018-09-23T06:43:44.738Z,1003.5
2018-09-23T06:44:44.726Z,1003.47
2018-09-23T06:45:44.793Z,1003.5
2018-09-23T06:46:44.697Z,1003.49
2018-09-23T06:47:44.677Z,1003.46
2018-09-23T06:48:44.665Z,1003.46
2018-09-23T06:49:44.647Z,1003.43
2018-09-23T06:50:44.632Z,1003.47
2018-09-23T06:51:44.819Z,1003.51
2018-09-23T06:52:44.603Z,1003.52
2018-09-23T06:53:44.588Z,1003.52
2018-09-23T06:54:44.571Z,1003.52
2018-09-23T06:55:44.557Z,1003.53
2018-09-23T06:56:44.548Z,1003.57
2018-09-23T06:57:44.528Z,1003.53
2018-09-23T06:58:44.517Z,1003.53
2018-09-23T06:59:44.496Z,1003.54
2018-09-23T07:00:44.482Z,1003.53
2018-09-23T07:01:44.467Z,1003.52
2018-09-23T07:02:44.454Z,1003.52
2018-09-23T07:03:44.439Z,1003.56
2018-09-23T07:04:44.493Z,1003.66
2018-09-23T07:05:44.410Z,1003.7
2018-09-23T07:06:44.393Z,1003.8
2018-09-23T07:07:44.380Z,1003.79
2018-09-23T07:08:44.362Z,1003.78
2018-09-23T07:09:44.345Z,1003.77
2018-09-23T07:10:44.335Z,1003.73
2018-09-23T07:11:44.321Z,1003.72
2018-09-23T07:12:44.302Z,1003.7
2018-09-23T07:13:44.286Z,1003.63
2018-09-23T07:14:44.271Z,1003.61
2018-09-23T07:15:44.259Z,1003.56
2018-09-23T07:16:44.243Z,1003.56
2018-09-23T07:17:44.230Z,1003.62
2018-09-23T07:18:44.215Z,1003.68
2018-09-23T07:19:44.208Z,1003.69
2018-09-23T07:20:44.183Z,1003.74
2018-09-23T07:21:44.168Z,1003.76
2018-09-23T07:22:44.159Z,1003.76
2018-09-23T07:23:44.221Z,1003.77
2018-09-23T07:24:44.129Z,1003.77
2018-09-23T07:25:44.112Z,1003.76
2018-09-23T07:26:44.095Z,1003.68
2018-09-23T07:27:44.086Z,1003.65
2018-09-23T07:28:44.063Z,1003.58
2018-09-23T07:29:44.052Z,1003.56
2018-09-23T07:30:44.059Z,1003.55
2018-09-23T07:31:44.024Z,1003.55
2018-09-23T07:32:44.009Z,1003.54
2018-09-23T07:33:43.997Z,1003.51
2018-09-23T07:34:43.979Z,1003.49
2018-09-23T07:35:43.964Z,1003.42
2018-09-23T07:36:44.029Z,1003.39
2018-09-23T07:37:43.942Z,1003.42
2018-09-23T07:38:43.918Z,1003.43
2018-09-23T07:39:43.908Z,1003.49
2018-09-23T07:40:43.889Z,1003.51
2018-09-23T07:41:43.884Z,1003.54
2018-09-23T07:42:43.860Z,1003.54
2018-09-23T07:43:43.845Z,1003.49
2018-09-23T07:44:43.830Z,1003.49
2018-09-23T07:45:43.818Z,1003.46
2018-09-23T07:46:43.815Z,1003.49
2018-09-23T07:47:43.789Z,1003.42
2018-09-23T07:48:43.776Z,1003.37
2018-09-23T07:49:43.758Z,1003.32
2018-09-23T07:50:43.743Z,1003.31
2018-09-23T07:51:43.728Z,1003.28
2018-09-23T07:52:43.714Z,1003.24
2018-09-23T07:53:43.699Z,1003.18
2018-09-23T07:54:43.686Z,1003.12
2018-09-23T07:55:43.672Z,1003.09
2018-09-23T07:56:43.657Z,1003.07
2018-09-23T07:57:43.643Z,1003.04
2018-09-23T07:58:43.628Z,1003.07
2018-09-23T07:59:43.615Z,1003.04
2018-09-23T08:00:43.599Z,1003.02
2018-09-23T08:01:43.585Z,1003.02
2018-09-23T08:02:43.584Z,1003.03
2018-09-23T08:03:43.559Z,1003.03
2018-09-23T08:04:43.543Z,1003.06
2018-09-23T08:05:43.529Z,1003.08
2018-09-23T08:06:43.518Z,1003.07
2018-09-23T08:07:43.502Z,1003.05
2018-09-23T08:08:43.488Z,1002.99
2018-09-23T08:09:43.474Z,1002.96
2018-09-23T08:10:43.458Z,1002.93
2018-09-23T08:11:43.449Z,1002.89
2018-09-23T08:12:43.668Z,1002.81
2018-09-23T08:13:43.550Z,1002.77
2018-09-23T08:14:43.771Z,1002.75
2018-09-23T08:15:43.389Z,1002.73
2018-09-23T08:16:43.377Z,1002.68
2018-09-23T08:17:43.365Z,1002.65
2018-09-23T08:18:43.348Z,1002.62
2018-09-23T08:19:43.430Z,1002.55
2018-09-23T08:20:43.345Z,1002.54
2018-09-23T08:21:43.307Z,1002.56
2018-09-23T08:22:43.291Z,1002.65
2018-09-23T08:23:43.280Z,1002.7
2018-09-23T08:24:43.264Z,1002.76
2018-09-23T08:25:43.321Z,1002.83
2018-09-23T08:26:43.240Z,1002.93
2018-09-23T08:27:43.225Z,1002.93
2018-09-23T08:28:43.212Z,1002.93
2018-09-23T08:29:43.198Z,1002.88
2018-09-23T08:30:43.184Z,1002.86
2018-09-23T08:31:43.170Z,1002.82
2018-09-23T08:32:43.157Z,1002.7
2018-09-23T08:33:43.142Z,1002.67
2018-09-23T08:34:43.128Z,1002.63
2018-09-23T08:35:43.113Z,1002.55
2018-09-23T08:36:43.100Z,1002.53
2018-09-23T08:37:43.086Z,1002.55
2018-09-23T08:38:43.072Z,1002.55
2018-09-23T08:39:43.124Z,1002.56
2018-09-23T08:40:43.048Z,1002.58
2018-09-23T08:41:43.031Z,1002.61
2018-09-23T08:42:43.021Z,1002.65
2018-09-23T08:43:43.003Z,1002.66
2018-09-23T08:44:42.988Z,1002.69
2018-09-23T08:45:42.975Z,1002.67
2018-09-23T08:46:42.962Z,1002.62
2018-09-23T08:47:42.948Z,1002.59
2018-09-23T08:48:42.931Z,1002.58
2018-09-23T08:49:42.918Z,1002.58
2018-09-23T08:50:42.904Z,1002.59
2018-09-23T08:51:43.128Z,1002.62
2018-09-23T08:52:42.884Z,1002.61
2018-09-23T08:53:42.870Z,1002.62
2018-09-23T08:54:42.849Z,1002.61
2018-09-23T08:55:42.835Z,1002.6
2018-09-23T08:56:42.821Z,1002.61
2018-09-23T08:57:42.814Z,1002.59
2018-09-23T08:58:42.800Z,1002.63
2018-09-23T08:59:42.779Z,1002.61
2018-09-23T09:00:42.769Z,1002.62
2018-09-23T09:01:42.752Z,1002.69
2018-09-23T09:02:42.742Z,1002.68
2018-09-23T09:03:42.736Z,1002.62
2018-09-23T09:04:42.710Z,1002.63
2018-09-23T09:05:42.696Z,1002.56
2018-09-23T09:06:42.680Z,1002.55
2018-09-23T09:07:42.667Z,1002.54
2018-09-23T09:08:42.654Z,1002.5
2018-09-23T09:09:42.639Z,1002.49
2018-09-23T09:10:42.624Z,1002.52
2018-09-23T09:11:42.665Z,1002.49
2018-09-23T09:12:42.597Z,1002.48
2018-09-23T09:13:42.584Z,1002.4
2018-09-23T09:14:42.570Z,1002.31
2018-09-23T09:15:42.556Z,1002.25
2018-09-23T09:16:42.544Z,1002.23
2018-09-23T09:17:42.529Z,1002.23
2018-09-23T09:18:42.779Z,1002.22
2018-09-23T09:19:42.509Z,1002.25
2018-09-23T09:20:42.484Z,1002.23
2018-09-23T09:21:42.472Z,1002.21
2018-09-23T09:22:42.457Z,1002.19
2018-09-23T09:23:42.444Z,1002.19
2018-09-23T09:24:42.429Z,1002.12
2018-09-23T09:25:42.415Z,1002.05
2018-09-23T09:26:42.408Z,1002.03
2018-09-23T09:27:42.388Z,1002
2018-09-23T09:28:42.372Z,1001.96
2018-09-23T09:29:42.370Z,1001.96
2018-09-23T09:30:42.348Z,1001.97
2018-09-23T09:31:42.332Z,1001.93
2018-09-23T09:32:42.316Z,1001.89
2018-09-23T09:33:42.302Z,1001.82
2018-09-23T09:34:42.289Z,1001.85
2018-09-23T09:35:42.276Z,1001.8
2018-09-23T09:36:42.263Z,1001.79
2018-09-23T09:37:42.248Z,1001.72
2018-09-23T09:38:42.237Z,1001.73
2018-09-23T09:39:42.222Z,1001.71
2018-09-23T09:40:42.207Z,1001.71
2018-09-23T09:41:42.196Z,1001.62
2018-09-23T09:42:42.179Z,1001.58
2018-09-23T09:43:42.170Z,1001.54
2018-09-23T09:44:42.150Z,1001.57
2018-09-23T09:45:42.142Z,1001.58
2018-09-23T09:46:42.136Z,1001.62
2018-09-23T09:47:42.118Z,1001.65
2018-09-23T09:48:42.095Z,1001.67
2018-09-23T09:49:42.083Z,1001.66
2018-09-23T09:50:42.069Z,1001.65
2018-09-23T09:51:42.056Z,1001.66
2018-09-23T09:52:42.042Z,1001.69
2018-09-23T09:53:42.029Z,1001.74
2018-09-23T09:54:42.014Z,1001.8
2018-09-23T09:55:42.030Z,1001.82
2018-09-23T09:56:41.989Z,1001.77
2018-09-23T09:57:41.972Z,1001.73
2018-09-23T09:58:41.965Z,1001.64
2018-09-23T09:59:41.944Z,1001.56
2018-09-23T10:00:41.931Z,1001.51
2018-09-23T10:01:41.918Z,1001.38
2018-09-23T10:02:41.903Z,1001.36
2018-09-23T10:03:41.959Z,1001.27
2018-09-23T10:04:41.877Z,1001.21
2018-09-23T10:05:41.861Z,1001.14
2018-09-23T10:06:41.848Z,1001.05
2018-09-23T10:07:41.843Z,1001.01
2018-09-23T10:08:41.833Z,1001.01
2018-09-23T10:09:41.807Z,1000.95
2018-09-23T10:10:41.796Z,1000.94
2018-09-23T10:11:41.781Z,1000.94
2018-09-23T10:12:41.764Z,1000.89
2018-09-23T10:13:41.751Z,1000.86
2018-09-23T10:14:41.739Z,1000.84
2018-09-23T10:15:41.729Z,1000.84
2018-09-23T10:16:41.710Z,1000.9
2018-09-23T10:17:41.697Z,1000.88
2018-09-23T10:18:41.682Z,1000.9
2018-09-23T10:19:41.673Z,1000.91
2018-09-23T10:20:41.655Z,1000.82
2018-09-23T10:21:41.649Z,1000.71
2018-09-23T10:22:41.709Z,1000.68
2018-09-23T10:23:41.757Z,1000.77
2018-09-23T10:24:41.599Z,1000.8
2018-09-23T10:25:41.585Z,1000.91
2018-09-23T10:26:41.577Z,1001.01
2018-09-23T10:27:41.557Z,1001.13
2018-09-23T10:28:41.542Z,1001.25
2018-09-23T10:29:41.532Z,1001.27
2018-09-23T10:30:41.516Z,1001.22
2018-09-23T10:31:41.529Z,1001.22
2018-09-23T10:32:41.493Z,1001.16
2018-09-23T10:33:41.475Z,1001.05
2018-09-23T10:34:41.465Z,1001.05
2018-09-23T10:35:41.445Z,1001.07
2018-09-23T10:36:41.433Z,1001.06
2018-09-23T10:37:41.421Z,1001.09
2018-09-23T10:38:41.406Z,1001.08
2018-09-23T10:39:41.390Z,1001.02
2018-09-23T10:40:41.399Z,1001.01
2018-09-23T10:41:41.371Z,1000.97
2018-09-23T10:42:41.350Z,1000.92
2018-09-23T10:43:41.333Z,1000.95
2018-09-23T10:44:41.319Z,1000.94
2018-09-23T10:45:41.303Z,1000.97
2018-09-23T10:46:41.319Z,1000.99
2018-09-23T10:47:41.275Z,1001.08
2018-09-23T10:48:41.261Z,1001.03
2018-09-23T10:49:41.262Z,1001.16
2018-09-23T10:50:41.230Z,1001.21
2018-09-23T10:51:41.217Z,1001.26
2018-09-23T10:52:41.202Z,1001.33
2018-09-23T10:53:41.191Z,1001.32
2018-09-23T10:54:41.173Z,1001.37
2018-09-23T10:55:41.197Z,1001.38
2018-09-23T10:56:41.146Z,1001.35
2018-09-23T10:57:41.132Z,1001.31
2018-09-23T10:58:41.117Z,1001.25
2018-09-23T10:59:41.106Z,1001.22
2018-09-23T11:00:41.087Z,1001.09
2018-09-23T11:01:41.120Z,1000.92
2018-09-23T11:02:41.065Z,1000.87
2018-09-23T11:03:41.088Z,1000.77
2018-09-23T11:04:41.034Z,1000.72
2018-09-23T11:05:41.024Z,1000.66
2018-09-23T11:06:40.999Z,1000.64
2018-09-23T11:07:40.988Z,1000.61
2018-09-23T11:08:40.970Z,1000.68
2018-09-23T11:09:40.974Z,1000.71
2018-09-23T11:10:40.943Z,1000.77
2018-09-23T11:11:40.927Z,1000.92
2018-09-23T11:12:40.912Z,1001.02
2018-09-23T11:13:40.898Z,1001.07
2018-09-23T11:14:40.882Z,1001.09
2018-09-23T11:15:40.869Z,1001.08
2018-09-23T11:16:40.858Z,1001.08
2018-09-23T11:17:40.840Z,1001.06
2018-09-23T11:18:41.034Z,1001
2018-09-23T11:19:40.810Z,1000.97
2018-09-23T11:20:40.797Z,1000.92
2018-09-23T11:21:40.782Z,1000.98
2018-09-23T11:22:40.771Z,1001.03
2018-09-23T11:23:40.753Z,1001
2018-09-23T11:24:40.764Z,1000.94
2018-09-23T11:25:40.727Z,1000.91
2018-09-23T11:26:40.706Z,1000.91
2018-09-23T11:27:40.695Z,1000.92
2018-09-23T11:28:40.677Z,1000.96
2018-09-23T11:29:40.660Z,1000.94
2018-09-23T11:30:40.706Z,1000.88
2018-09-23T11:31:40.638Z,1000.84
2018-09-23T11:32:40.620Z,1000.79
2018-09-23T11:33:40.600Z,1000.77
2018-09-23T11:34:40.588Z,1000.77
2018-09-23T11:35:40.595Z,1000.67
2018-09-23T11:36:40.561Z,1000.67
2018-09-23T11:37:40.543Z,1000.61
2018-09-23T11:38:40.528Z,1000.5
2018-09-23T11:39:40.512Z,1000.38
2018-09-23T11:40:40.497Z,1000.32
2018-09-23T11:41:40.483Z,1000.18
2018-09-23T11:42:40.468Z,999.95
2018-09-23T11:43:40.454Z,999.73
2018-09-23T11:44:40.439Z,999.55
2018-09-23T11:45:40.427Z,999.44
2018-09-23T11:46:40.413Z,999.41
2018-09-23T11:47:40.396Z,999.37
2018-09-23T11:48:40.383Z,999.28
2018-09-23T11:49:40.366Z,999.31
2018-09-23T11:50:40.352Z,999.43
2018-09-23T11:51:40.335Z,999.48
2018-09-23T11:52:40.320Z,999.53
2018-09-23T11:53:40.307Z,999.62
2018-09-23T11:54:40.294Z,999.68
2018-09-23T11:55:40.276Z,999.75
2018-09-23T11:56:40.263Z,999.75
2018-09-23T11:57:40.255Z,999.78
2018-09-23T11:58:40.233Z,999.82
2018-09-23T11:59:40.217Z,999.92
2018-09-23T12:00:40.202Z,999.97
2018-09-23T12:01:40.498Z,999.92
2018-09-23T12:02:40.179Z,999.88
2018-09-23T12:03:40.161Z,999.76
2018-09-23T12:04:40.143Z,999.72
2018-09-23T12:05:40.128Z,999.63
2018-09-23T12:06:40.113Z,999.44
2018-09-23T12:07:40.100Z,999.41
2018-09-23T12:08:40.112Z,999.45